sensor_id;sensor_type;location;lat;lon;timestamp;P1;durP1;ratioP1;P2;durP2;ratioP2
14276;SDS011;7222;57.346;12.150;2023-02-01T00:00:19;11.23;;;3.23;;
14276;SDS011;7222;57.346;12.150;2023-02-01T00:02:47;13.27;;;3.70;;
14276;SDS011;7222;57.346;12.150;2023-02-01T00:05:14;7.47;;;2.43;;
14276;SDS011;7222;57.346;12.150;2023-02-01T00:07:41;15.57;;;3.77;;
14276;SDS011;7222;57.346;12.150;2023-02-01T00:10:08;17.23;;;4.67;;
14276;SDS011;7222;57.346;12.150;2023-02-01T00:12:36;18.30;;;4.10;;
14276;SDS011;7222;57.346;12.150;2023-02-01T00:15:03;18.13;;;5.33;;
14276;SDS011;7222;57.346;12.150;2023-02-01T00:17:31;13.10;;;4.07;;
14276;SDS011;7222;57.346;12.150;2023-02-01T00:19:59;14.43;;;5.00;;
14276;SDS011;7222;57.346;12.150;2023-02-01T00:22:26;21.33;;;5.50;;
14276;SDS011;7222;57.346;12.150;2023-02-01T00:24:53;21.80;;;4.73;;
14276;SDS011;7222;57.346;12.150;2023-02-01T00:27:20;6.97;;;2.80;;
14276;SDS011;7222;57.346;12.150;2023-02-01T00:29:47;16.27;;;5.50;;
14276;SDS011;7222;57.346;12.150;2023-02-01T00:32:14;20.87;;;5.77;;
14276;SDS011;7222;57.346;12.150;2023-02-01T00:34:41;13.40;;;3.40;;
14276;SDS011;7222;57.346;12.150;2023-02-01T00:37:09;14.40;;;4.20;;
14276;SDS011;7222;57.346;12.150;2023-02-01T00:39:36;20.37;;;4.37;;
14276;SDS011;7222;57.346;12.150;2023-02-01T00:42:03;16.97;;;5.37;;
14276;SDS011;7222;57.346;12.150;2023-02-01T00:44:30;17.00;;;4.07;;
14276;SDS011;7222;57.346;12.150;2023-02-01T00:46:59;14.67;;;4.53;;
14276;SDS011;7222;57.346;12.150;2023-02-01T00:49:27;16.80;;;3.90;;
14276;SDS011;7222;57.346;12.150;2023-02-01T00:51:54;12.57;;;3.90;;
14276;SDS011;7222;57.346;12.150;2023-02-01T00:54:23;19.57;;;4.20;;
14276;SDS011;7222;57.346;12.150;2023-02-01T00:56:50;14.33;;;4.30;;
14276;SDS011;7222;57.346;12.150;2023-02-01T00:59:17;16.70;;;3.03;;
14276;SDS011;7222;57.346;12.150;2023-02-01T01:01:44;16.73;;;3.37;;
14276;SDS011;7222;57.346;12.150;2023-02-01T01:04:11;17.50;;;4.67;;
14276;SDS011;7222;57.346;12.150;2023-02-01T01:06:38;12.43;;;4.70;;
14276;SDS011;7222;57.346;12.150;2023-02-01T01:09:06;12.70;;;4.07;;
14276;SDS011;7222;57.346;12.150;2023-02-01T01:11:35;20.13;;;4.93;;
14276;SDS011;7222;57.346;12.150;2023-02-01T01:14:04;17.60;;;4.47;;
14276;SDS011;7222;57.346;12.150;2023-02-01T01:16:32;16.30;;;5.50;;
14276;SDS011;7222;57.346;12.150;2023-02-01T01:19:00;17.50;;;3.93;;
14276;SDS011;7222;57.346;12.150;2023-02-01T01:21:27;16.27;;;4.10;;
14276;SDS011;7222;57.346;12.150;2023-02-01T01:23:54;23.00;;;6.07;;
14276;SDS011;7222;57.346;12.150;2023-02-01T01:26:22;16.80;;;4.80;;
14276;SDS011;7222;57.346;12.150;2023-02-01T01:28:52;20.90;;;5.10;;
14276;SDS011;7222;57.346;12.150;2023-02-01T01:31:20;24.07;;;5.50;;
14276;SDS011;7222;57.346;12.150;2023-02-01T01:33:49;21.30;;;5.27;;
14276;SDS011;7222;57.346;12.150;2023-02-01T01:36:17;18.10;;;4.97;;
14276;SDS011;7222;57.346;12.150;2023-02-01T01:38:44;20.17;;;4.73;;
14276;SDS011;7222;57.346;12.150;2023-02-01T01:41:12;19.23;;;5.17;;
14276;SDS011;7222;57.346;12.150;2023-02-01T01:43:46;17.67;;;4.40;;
14276;SDS011;7222;57.346;12.150;2023-02-01T01:46:19;18.67;;;5.10;;
14276;SDS011;7222;57.346;12.150;2023-02-01T01:48:48;21.90;;;4.80;;
14276;SDS011;7222;57.346;12.150;2023-02-01T01:51:18;14.60;;;4.20;;
14276;SDS011;7222;57.346;12.150;2023-02-01T01:53:48;21.40;;;6.13;;
14276;SDS011;7222;57.346;12.150;2023-02-01T01:56:22;23.53;;;7.53;;
14276;SDS011;7222;57.346;12.150;2023-02-01T01:58:51;14.17;;;3.80;;
14276;SDS011;7222;57.346;12.150;2023-02-01T02:01:20;19.57;;;7.03;;
14276;SDS011;7222;57.346;12.150;2023-02-01T02:03:47;23.87;;;8.07;;
14276;SDS011;7222;57.346;12.150;2023-02-01T02:06:16;26.50;;;7.10;;
14276;SDS011;7222;57.346;12.150;2023-02-01T02:08:51;19.13;;;6.27;;
14276;SDS011;7222;57.346;12.150;2023-02-01T02:11:19;17.20;;;4.87;;
14276;SDS011;7222;57.346;12.150;2023-02-01T02:13:46;28.50;;;6.60;;
14276;SDS011;7222;57.346;12.150;2023-02-01T02:16:26;20.07;;;5.63;;
14276;SDS011;7222;57.346;12.150;2023-02-01T02:22:09;26.87;;;6.07;;
14276;SDS011;7222;57.346;12.150;2023-02-01T02:25:23;30.23;;;7.60;;
14276;SDS011;7222;57.346;12.150;2023-02-01T02:28:30;22.17;;;5.50;;
14276;SDS011;7222;57.346;12.150;2023-02-01T02:31:22;19.13;;;5.10;;
14276;SDS011;7222;57.346;12.150;2023-02-01T02:34:07;24.90;;;5.73;;
14276;SDS011;7222;57.346;12.150;2023-02-01T02:36:47;28.07;;;6.93;;
14276;SDS011;7222;57.346;12.150;2023-02-01T02:39:24;22.00;;;5.03;;
14276;SDS011;7222;57.346;12.150;2023-02-01T02:42:04;16.30;;;5.33;;
14276;SDS011;7222;57.346;12.150;2023-02-01T02:45:12;27.30;;;7.77;;
14276;SDS011;7222;57.346;12.150;2023-02-01T02:48:02;27.93;;;6.57;;
14276;SDS011;7222;57.346;12.150;2023-02-01T02:50:40;18.63;;;5.47;;
14276;SDS011;7222;57.346;12.150;2023-02-01T02:53:30;22.80;;;6.87;;
14276;SDS011;7222;57.346;12.150;2023-02-01T02:56:20;16.93;;;4.73;;
14276;SDS011;7222;57.346;12.150;2023-02-01T02:59:08;31.50;;;6.60;;
14276;SDS011;7222;57.346;12.150;2023-02-01T03:01:54;17.83;;;5.20;;
14276;SDS011;7222;57.346;12.150;2023-02-01T03:04:39;21.57;;;6.60;;
14276;SDS011;7222;57.346;12.150;2023-02-01T03:07:12;25.87;;;6.30;;
14276;SDS011;7222;57.346;12.150;2023-02-01T03:09:41;21.70;;;6.00;;
14276;SDS011;7222;57.346;12.150;2023-02-01T03:12:11;21.63;;;5.57;;
14276;SDS011;7222;57.346;12.150;2023-02-01T03:14:59;29.07;;;7.83;;
14276;SDS011;7222;57.346;12.150;2023-02-01T03:17:33;31.83;;;9.80;;
14276;SDS011;7222;57.346;12.150;2023-02-01T03:20:09;29.40;;;7.97;;
14276;SDS011;7222;57.346;12.150;2023-02-01T03:22:40;28.77;;;7.70;;
14276;SDS011;7222;57.346;12.150;2023-02-01T03:25:10;23.10;;;5.60;;
14276;SDS011;7222;57.346;12.150;2023-02-01T03:27:41;24.07;;;6.13;;
14276;SDS011;7222;57.346;12.150;2023-02-01T03:30:15;23.07;;;5.83;;
14276;SDS011;7222;57.346;12.150;2023-02-01T03:32:47;29.07;;;6.93;;
14276;SDS011;7222;57.346;12.150;2023-02-01T03:35:26;25.10;;;7.50;;
14276;SDS011;7222;57.346;12.150;2023-02-01T03:37:59;27.70;;;7.10;;
14276;SDS011;7222;57.346;12.150;2023-02-01T03:40:30;35.53;;;7.10;;
14276;SDS011;7222;57.346;12.150;2023-02-01T03:43:02;31.33;;;9.17;;
14276;SDS011;7222;57.346;12.150;2023-02-01T03:45:34;31.60;;;8.37;;
14276;SDS011;7222;57.346;12.150;2023-02-01T03:48:06;24.40;;;5.83;;
14276;SDS011;7222;57.346;12.150;2023-02-01T03:50:34;27.63;;;8.57;;
14276;SDS011;7222;57.346;12.150;2023-02-01T03:53:06;30.60;;;8.93;;
14276;SDS011;7222;57.346;12.150;2023-02-01T03:55:37;37.13;;;10.30;;
14276;SDS011;7222;57.346;12.150;2023-02-01T03:58:06;32.40;;;8.47;;
14276;SDS011;7222;57.346;12.150;2023-02-01T04:00:36;33.97;;;8.60;;
14276;SDS011;7222;57.346;12.150;2023-02-01T04:03:04;29.23;;;8.10;;
14276;SDS011;7222;57.346;12.150;2023-02-01T04:05:32;29.27;;;9.27;;
14276;SDS011;7222;57.346;12.150;2023-02-01T04:07:59;34.67;;;7.23;;
14276;SDS011;7222;57.346;12.150;2023-02-01T04:10:28;26.80;;;8.23;;
14276;SDS011;7222;57.346;12.150;2023-02-01T04:12:55;34.37;;;9.43;;
14276;SDS011;7222;57.346;12.150;2023-02-01T04:15:22;31.63;;;6.77;;
14276;SDS011;7222;57.346;12.150;2023-02-01T04:17:49;28.43;;;8.67;;
14276;SDS011;7222;57.346;12.150;2023-02-01T04:20:16;24.23;;;6.37;;
14276;SDS011;7222;57.346;12.150;2023-02-01T04:22:43;25.47;;;7.00;;
14276;SDS011;7222;57.346;12.150;2023-02-01T04:25:11;30.60;;;8.67;;
14276;SDS011;7222;57.346;12.150;2023-02-01T04:27:39;28.57;;;7.27;;
14276;SDS011;7222;57.346;12.150;2023-02-01T04:30:07;43.57;;;8.43;;
14276;SDS011;7222;57.346;12.150;2023-02-01T04:32:35;30.63;;;7.93;;
14276;SDS011;7222;57.346;12.150;2023-02-01T04:35:02;24.90;;;6.00;;
14276;SDS011;7222;57.346;12.150;2023-02-01T04:37:29;30.50;;;7.50;;
14276;SDS011;7222;57.346;12.150;2023-02-01T04:39:56;29.47;;;7.40;;
14276;SDS011;7222;57.346;12.150;2023-02-01T04:42:23;27.97;;;7.50;;
14276;SDS011;7222;57.346;12.150;2023-02-01T04:44:51;25.70;;;6.50;;
14276;SDS011;7222;57.346;12.150;2023-02-01T04:47:18;20.93;;;6.53;;
14276;SDS011;7222;57.346;12.150;2023-02-01T04:49:45;25.50;;;5.83;;
14276;SDS011;7222;57.346;12.150;2023-02-01T04:52:12;25.93;;;6.93;;
14276;SDS011;7222;57.346;12.150;2023-02-01T04:54:39;30.40;;;8.20;;
14276;SDS011;7222;57.346;12.150;2023-02-01T04:57:06;30.27;;;8.90;;
14276;SDS011;7222;57.346;12.150;2023-02-01T04:59:33;32.77;;;9.50;;
14276;SDS011;7222;57.346;12.150;2023-02-01T05:02:01;27.93;;;6.60;;
14276;SDS011;7222;57.346;12.150;2023-02-01T05:04:28;27.73;;;9.20;;
14276;SDS011;7222;57.346;12.150;2023-02-01T05:06:55;25.27;;;6.87;;
14276;SDS011;7222;57.346;12.150;2023-02-01T05:09:22;25.57;;;5.43;;
14276;SDS011;7222;57.346;12.150;2023-02-01T05:11:49;30.23;;;5.87;;
14276;SDS011;7222;57.346;12.150;2023-02-01T05:14:33;24.83;;;8.10;;
14276;SDS011;7222;57.346;12.150;2023-02-01T05:17:01;31.17;;;9.37;;
14276;SDS011;7222;57.346;12.150;2023-02-01T05:19:28;22.70;;;5.17;;
14276;SDS011;7222;57.346;12.150;2023-02-01T05:21:55;18.90;;;4.93;;
14276;SDS011;7222;57.346;12.150;2023-02-01T05:24:22;20.67;;;5.77;;
14276;SDS011;7222;57.346;12.150;2023-02-01T05:26:49;18.67;;;4.87;;
14276;SDS011;7222;57.346;12.150;2023-02-01T05:29:16;29.27;;;6.03;;
14276;SDS011;7222;57.346;12.150;2023-02-01T05:31:44;26.10;;;6.63;;
14276;SDS011;7222;57.346;12.150;2023-02-01T05:34:14;24.17;;;5.50;;
14276;SDS011;7222;57.346;12.150;2023-02-01T05:36:41;26.90;;;7.73;;
14276;SDS011;7222;57.346;12.150;2023-02-01T05:39:08;25.10;;;6.40;;
14276;SDS011;7222;57.346;12.150;2023-02-01T05:41:35;23.97;;;5.43;;
14276;SDS011;7222;57.346;12.150;2023-02-01T05:44:03;19.57;;;5.47;;
14276;SDS011;7222;57.346;12.150;2023-02-01T05:46:32;17.77;;;5.40;;
14276;SDS011;7222;57.346;12.150;2023-02-01T05:48:59;20.83;;;5.27;;
14276;SDS011;7222;57.346;12.150;2023-02-01T05:51:27;20.10;;;5.17;;
14276;SDS011;7222;57.346;12.150;2023-02-01T05:53:54;16.97;;;3.73;;
14276;SDS011;7222;57.346;12.150;2023-02-01T05:56:21;14.57;;;3.93;;
14276;SDS011;7222;57.346;12.150;2023-02-01T05:58:48;21.80;;;6.50;;
14276;SDS011;7222;57.346;12.150;2023-02-01T06:01:15;23.77;;;4.87;;
14276;SDS011;7222;57.346;12.150;2023-02-01T06:03:42;21.07;;;4.77;;
14276;SDS011;7222;57.346;12.150;2023-02-01T06:06:09;19.60;;;5.37;;
14276;SDS011;7222;57.346;12.150;2023-02-01T06:08:37;18.90;;;3.60;;
14276;SDS011;7222;57.346;12.150;2023-02-01T06:11:05;16.07;;;4.67;;
14276;SDS011;7222;57.346;12.150;2023-02-01T06:13:32;13.07;;;3.73;;
14276;SDS011;7222;57.346;12.150;2023-02-01T06:16:00;20.63;;;5.13;;
14276;SDS011;7222;57.346;12.150;2023-02-01T06:18:28;24.90;;;6.33;;
14276;SDS011;7222;57.346;12.150;2023-02-01T06:20:56;19.73;;;6.80;;
14276;SDS011;7222;57.346;12.150;2023-02-01T06:23:25;23.40;;;6.90;;
14276;SDS011;7222;57.346;12.150;2023-02-01T06:25:59;18.13;;;5.37;;
14276;SDS011;7222;57.346;12.150;2023-02-01T06:28:27;21.43;;;5.60;;
14276;SDS011;7222;57.346;12.150;2023-02-01T06:30:55;26.37;;;5.80;;
14276;SDS011;7222;57.346;12.150;2023-02-01T06:33:23;19.07;;;4.23;;
14276;SDS011;7222;57.346;12.150;2023-02-01T06:35:55;25.70;;;5.73;;
14276;SDS011;7222;57.346;12.150;2023-02-01T06:38:23;25.13;;;6.43;;
14276;SDS011;7222;57.346;12.150;2023-02-01T06:40:51;24.10;;;5.80;;
14276;SDS011;7222;57.346;12.150;2023-02-01T06:43:20;20.97;;;6.00;;
14276;SDS011;7222;57.346;12.150;2023-02-01T06:45:47;22.83;;;5.33;;
14276;SDS011;7222;57.346;12.150;2023-02-01T06:48:14;21.60;;;3.80;;
14276;SDS011;7222;57.346;12.150;2023-02-01T06:50:41;22.63;;;5.67;;
14276;SDS011;7222;57.346;12.150;2023-02-01T06:53:08;21.93;;;5.67;;
14276;SDS011;7222;57.346;12.150;2023-02-01T06:55:35;19.77;;;6.27;;
14276;SDS011;7222;57.346;12.150;2023-02-01T06:58:02;22.07;;;6.40;;
14276;SDS011;7222;57.346;12.150;2023-02-01T07:00:30;20.63;;;5.00;;
14276;SDS011;7222;57.346;12.150;2023-02-01T07:02:57;22.83;;;5.47;;
14276;SDS011;7222;57.346;12.150;2023-02-01T07:05:25;20.80;;;6.20;;
14276;SDS011;7222;57.346;12.150;2023-02-01T07:07:52;21.13;;;5.33;;
14276;SDS011;7222;57.346;12.150;2023-02-01T07:10:19;22.37;;;5.83;;
14276;SDS011;7222;57.346;12.150;2023-02-01T07:12:46;15.03;;;4.50;;
14276;SDS011;7222;57.346;12.150;2023-02-01T07:15:13;23.73;;;6.20;;
14276;SDS011;7222;57.346;12.150;2023-02-01T07:17:41;21.87;;;5.63;;
14276;SDS011;7222;57.346;12.150;2023-02-01T07:20:10;21.63;;;6.03;;
14276;SDS011;7222;57.346;12.150;2023-02-01T07:22:37;22.90;;;5.67;;
14276;SDS011;7222;57.346;12.150;2023-02-01T07:25:04;21.83;;;5.53;;
14276;SDS011;7222;57.346;12.150;2023-02-01T07:27:33;20.53;;;6.40;;
14276;SDS011;7222;57.346;12.150;2023-02-01T07:30:00;18.00;;;4.30;;
14276;SDS011;7222;57.346;12.150;2023-02-01T07:32:28;23.20;;;6.60;;
14276;SDS011;7222;57.346;12.150;2023-02-01T07:34:56;26.37;;;6.63;;
14276;SDS011;7222;57.346;12.150;2023-02-01T07:37:24;26.57;;;7.07;;
14276;SDS011;7222;57.346;12.150;2023-02-01T07:39:51;27.97;;;7.70;;
14276;SDS011;7222;57.346;12.150;2023-02-01T07:42:18;24.50;;;6.37;;
14276;SDS011;7222;57.346;12.150;2023-02-01T07:44:45;21.53;;;6.03;;
14276;SDS011;7222;57.346;12.150;2023-02-01T07:47:11;23.33;;;6.33;;
14276;SDS011;7222;57.346;12.150;2023-02-01T07:49:38;25.10;;;5.60;;
14276;SDS011;7222;57.346;12.150;2023-02-01T07:52:07;15.73;;;5.17;;
14276;SDS011;7222;57.346;12.150;2023-02-01T07:54:36;18.53;;;5.47;;
14276;SDS011;7222;57.346;12.150;2023-02-01T07:57:03;25.73;;;5.67;;
14276;SDS011;7222;57.346;12.150;2023-02-01T07:59:30;24.30;;;5.73;;
14276;SDS011;7222;57.346;12.150;2023-02-01T08:01:57;20.90;;;5.93;;
14276;SDS011;7222;57.346;12.150;2023-02-01T08:04:22;17.00;;;4.63;;
14276;SDS011;7222;57.346;12.150;2023-02-01T08:06:49;25.20;;;6.63;;
14276;SDS011;7222;57.346;12.150;2023-02-01T08:09:18;20.93;;;5.60;;
14276;SDS011;7222;57.346;12.150;2023-02-01T08:11:45;21.63;;;5.07;;
14276;SDS011;7222;57.346;12.150;2023-02-01T08:14:12;29.40;;;6.33;;
14276;SDS011;7222;57.346;12.150;2023-02-01T08:16:39;17.47;;;5.10;;
14276;SDS011;7222;57.346;12.150;2023-02-01T08:19:05;13.13;;;4.57;;
14276;SDS011;7222;57.346;12.150;2023-02-01T08:21:32;27.13;;;7.43;;
14276;SDS011;7222;57.346;12.150;2023-02-01T08:24:03;20.97;;;6.07;;
14276;SDS011;7222;57.346;12.150;2023-02-01T08:26:32;28.13;;;6.07;;
14276;SDS011;7222;57.346;12.150;2023-02-01T08:29:00;29.17;;;6.33;;
14276;SDS011;7222;57.346;12.150;2023-02-01T08:31:28;30.00;;;6.20;;
14276;SDS011;7222;57.346;12.150;2023-02-01T08:33:57;24.40;;;5.60;;
14276;SDS011;7222;57.346;12.150;2023-02-01T08:36:26;29.30;;;6.40;;
14276;SDS011;7222;57.346;12.150;2023-02-01T08:38:54;23.30;;;5.97;;
14276;SDS011;7222;57.346;12.150;2023-02-01T08:41:22;23.30;;;6.63;;
14276;SDS011;7222;57.346;12.150;2023-02-01T08:43:53;22.23;;;5.57;;
14276;SDS011;7222;57.346;12.150;2023-02-01T08:46:21;22.33;;;6.83;;
14276;SDS011;7222;57.346;12.150;2023-02-01T08:48:48;26.93;;;6.63;;
14276;SDS011;7222;57.346;12.150;2023-02-01T08:51:16;26.17;;;6.57;;
14276;SDS011;7222;57.346;12.150;2023-02-01T08:53:45;31.63;;;6.80;;
14276;SDS011;7222;57.346;12.150;2023-02-01T08:56:14;23.40;;;5.47;;
14276;SDS011;7222;57.346;12.150;2023-02-01T08:58:42;20.60;;;5.87;;
14276;SDS011;7222;57.346;12.150;2023-02-01T09:01:12;27.93;;;5.90;;
14276;SDS011;7222;57.346;12.150;2023-02-01T09:03:40;22.87;;;6.47;;
14276;SDS011;7222;57.346;12.150;2023-02-01T09:06:08;24.37;;;7.47;;
14276;SDS011;7222;57.346;12.150;2023-02-01T09:08:36;20.57;;;5.20;;
14276;SDS011;7222;57.346;12.150;2023-02-01T09:11:06;27.03;;;5.70;;
14276;SDS011;7222;57.346;12.150;2023-02-01T09:13:34;15.17;;;4.13;;
14276;SDS011;7222;57.346;12.150;2023-02-01T09:16:01;18.90;;;4.63;;
14276;SDS011;7222;57.346;12.150;2023-02-01T09:18:30;15.80;;;4.53;;
14276;SDS011;7222;57.346;12.150;2023-02-01T09:20:57;20.73;;;5.40;;
14276;SDS011;7222;57.346;12.150;2023-02-01T09:23:24;15.20;;;4.83;;
14276;SDS011;7222;57.346;12.150;2023-02-01T09:25:51;19.10;;;4.80;;
14276;SDS011;7222;57.346;12.150;2023-02-01T09:28:18;23.57;;;6.10;;
14276;SDS011;7222;57.346;12.150;2023-02-01T09:30:45;23.53;;;5.40;;
14276;SDS011;7222;57.346;12.150;2023-02-01T09:33:12;18.17;;;4.37;;
14276;SDS011;7222;57.346;12.150;2023-02-01T09:35:41;25.57;;;5.40;;
14276;SDS011;7222;57.346;12.150;2023-02-01T09:38:08;23.83;;;6.37;;
14276;SDS011;7222;57.346;12.150;2023-02-01T09:40:35;26.20;;;7.27;;
14276;SDS011;7222;57.346;12.150;2023-02-01T09:43:06;23.90;;;6.07;;
14276;SDS011;7222;57.346;12.150;2023-02-01T09:45:48;28.17;;;6.10;;
14276;SDS011;7222;57.346;12.150;2023-02-01T09:48:23;18.30;;;4.53;;
14276;SDS011;7222;57.346;12.150;2023-02-01T09:50:59;21.13;;;6.30;;
14276;SDS011;7222;57.346;12.150;2023-02-01T09:53:29;25.63;;;5.93;;
14276;SDS011;7222;57.346;12.150;2023-02-01T09:55:59;16.60;;;5.20;;
14276;SDS011;7222;57.346;12.150;2023-02-01T09:58:32;21.57;;;5.53;;
14276;SDS011;7222;57.346;12.150;2023-02-01T10:01:03;26.57;;;6.63;;
14276;SDS011;7222;57.346;12.150;2023-02-01T10:03:36;23.23;;;5.13;;
14276;SDS011;7222;57.346;12.150;2023-02-01T10:06:09;16.20;;;4.10;;
14276;SDS011;7222;57.346;12.150;2023-02-01T10:08:57;19.63;;;4.53;;
14276;SDS011;7222;57.346;12.150;2023-02-01T10:11:37;19.60;;;4.83;;
14276;SDS011;7222;57.346;12.150;2023-02-01T10:14:20;21.37;;;5.37;;
14276;SDS011;7222;57.346;12.150;2023-02-01T10:17:06;19.67;;;4.33;;
14276;SDS011;7222;57.346;12.150;2023-02-01T10:19:48;14.73;;;4.23;;
14276;SDS011;7222;57.346;12.150;2023-02-01T10:22:23;19.03;;;5.20;;
14276;SDS011;7222;57.346;12.150;2023-02-01T10:25:00;14.17;;;4.83;;
14276;SDS011;7222;57.346;12.150;2023-02-01T10:27:34;19.63;;;4.47;;
14276;SDS011;7222;57.346;12.150;2023-02-01T10:30:06;14.30;;;3.63;;
14276;SDS011;7222;57.346;12.150;2023-02-01T10:32:45;15.50;;;3.27;;
14276;SDS011;7222;57.346;12.150;2023-02-01T10:35:17;13.73;;;3.40;;
14276;SDS011;7222;57.346;12.150;2023-02-01T10:37:49;14.67;;;3.83;;
14276;SDS011;7222;57.346;12.150;2023-02-01T10:40:18;14.13;;;3.60;;
14276;SDS011;7222;57.346;12.150;2023-02-01T10:42:47;14.33;;;3.30;;
14276;SDS011;7222;57.346;12.150;2023-02-01T10:45:16;13.17;;;3.80;;
14276;SDS011;7222;57.346;12.150;2023-02-01T10:47:45;14.63;;;4.80;;
14276;SDS011;7222;57.346;12.150;2023-02-01T10:50:16;14.50;;;2.83;;
14276;SDS011;7222;57.346;12.150;2023-02-01T10:52:52;14.83;;;3.13;;
14276;SDS011;7222;57.346;12.150;2023-02-01T10:55:29;18.43;;;4.17;;
14276;SDS011;7222;57.346;12.150;2023-02-01T10:58:00;14.13;;;4.23;;
14276;SDS011;7222;57.346;12.150;2023-02-01T11:00:34;12.73;;;4.37;;
14276;SDS011;7222;57.346;12.150;2023-02-01T11:06:02;13.30;;;3.00;;
14276;SDS011;7222;57.346;12.150;2023-02-01T11:08:42;14.60;;;4.43;;
14276;SDS011;7222;57.346;12.150;2023-02-01T11:11:11;13.93;;;3.20;;
14276;SDS011;7222;57.346;12.150;2023-02-01T11:13:39;14.37;;;4.40;;
14276;SDS011;7222;57.346;12.150;2023-02-01T11:16:09;13.77;;;4.00;;
14276;SDS011;7222;57.346;12.150;2023-02-01T11:18:39;14.27;;;4.27;;
14276;SDS011;7222;57.346;12.150;2023-02-01T11:21:06;20.27;;;5.03;;
14276;SDS011;7222;57.346;12.150;2023-02-01T11:23:36;13.37;;;3.10;;
14276;SDS011;7222;57.346;12.150;2023-02-01T11:26:11;16.20;;;5.03;;
14276;SDS011;7222;57.346;12.150;2023-02-01T11:28:42;15.23;;;3.97;;
14276;SDS011;7222;57.346;12.150;2023-02-01T11:31:16;14.73;;;3.90;;
14276;SDS011;7222;57.346;12.150;2023-02-01T11:33:45;24.20;;;5.87;;
14276;SDS011;7222;57.346;12.150;2023-02-01T11:36:17;19.23;;;5.53;;
14276;SDS011;7222;57.346;12.150;2023-02-01T11:38:51;15.87;;;3.93;;
14276;SDS011;7222;57.346;12.150;2023-02-01T11:41:22;15.87;;;4.13;;
14276;SDS011;7222;57.346;12.150;2023-02-01T11:43:54;22.20;;;3.97;;
14276;SDS011;7222;57.346;12.150;2023-02-01T11:46:24;16.90;;;3.90;;
14276;SDS011;7222;57.346;12.150;2023-02-01T11:48:55;19.47;;;4.23;;
14276;SDS011;7222;57.346;12.150;2023-02-01T11:51:34;13.00;;;3.20;;
14276;SDS011;7222;57.346;12.150;2023-02-01T11:54:12;13.97;;;3.70;;
14276;SDS011;7222;57.346;12.150;2023-02-01T11:56:51;18.63;;;4.27;;
14276;SDS011;7222;57.346;12.150;2023-02-01T11:59:45;13.70;;;3.77;;
14276;SDS011;7222;57.346;12.150;2023-02-01T12:02:35;17.00;;;4.20;;
14276;SDS011;7222;57.346;12.150;2023-02-01T12:05:25;19.97;;;4.77;;
14276;SDS011;7222;57.346;12.150;2023-02-01T12:08:02;14.47;;;4.57;;
14276;SDS011;7222;57.346;12.150;2023-02-01T12:10:48;11.60;;;3.33;;
14276;SDS011;7222;57.346;12.150;2023-02-01T12:13:33;19.23;;;4.30;;
14276;SDS011;7222;57.346;12.150;2023-02-01T12:16:11;14.17;;;4.00;;
14276;SDS011;7222;57.346;12.150;2023-02-01T12:21:55;12.27;;;3.00;;
14276;SDS011;7222;57.346;12.150;2023-02-01T12:24:43;14.43;;;3.87;;
14276;SDS011;7222;57.346;12.150;2023-02-01T12:27:36;15.43;;;4.00;;
14276;SDS011;7222;57.346;12.150;2023-02-01T12:33:16;17.60;;;4.40;;
14276;SDS011;7222;57.346;12.150;2023-02-01T12:35:54;16.07;;;4.07;;
14276;SDS011;7222;57.346;12.150;2023-02-01T12:38:45;12.97;;;4.30;;
14276;SDS011;7222;57.346;12.150;2023-02-01T12:41:27;22.27;;;3.60;;
14276;SDS011;7222;57.346;12.150;2023-02-01T12:44:03;11.37;;;3.83;;
14276;SDS011;7222;57.346;12.150;2023-02-01T12:46:37;13.90;;;3.83;;
14276;SDS011;7222;57.346;12.150;2023-02-01T12:49:11;16.07;;;4.97;;
14276;SDS011;7222;57.346;12.150;2023-02-01T12:51:41;18.97;;;4.47;;
14276;SDS011;7222;57.346;12.150;2023-02-01T12:54:13;17.80;;;4.37;;
14276;SDS011;7222;57.346;12.150;2023-02-01T12:56:46;14.60;;;3.93;;
14276;SDS011;7222;57.346;12.150;2023-02-01T12:59:18;17.67;;;4.97;;
14276;SDS011;7222;57.346;12.150;2023-02-01T13:01:52;15.40;;;4.33;;
14276;SDS011;7222;57.346;12.150;2023-02-01T13:04:25;18.57;;;4.57;;
14276;SDS011;7222;57.346;12.150;2023-02-01T13:06:59;18.77;;;4.80;;
14276;SDS011;7222;57.346;12.150;2023-02-01T13:09:32;16.17;;;4.23;;
14276;SDS011;7222;57.346;12.150;2023-02-01T13:12:07;14.40;;;3.93;;
14276;SDS011;7222;57.346;12.150;2023-02-01T13:14:39;21.03;;;5.50;;
14276;SDS011;7222;57.346;12.150;2023-02-01T13:17:14;27.80;;;6.47;;
14276;SDS011;7222;57.346;12.150;2023-02-01T13:19:43;15.03;;;5.40;;
14276;SDS011;7222;57.346;12.150;2023-02-01T13:22:15;16.73;;;4.83;;
14276;SDS011;7222;57.346;12.150;2023-02-01T13:24:47;20.63;;;6.23;;
14276;SDS011;7222;57.346;12.150;2023-02-01T13:27:17;20.80;;;5.07;;
14276;SDS011;7222;57.346;12.150;2023-02-01T13:29:46;18.00;;;4.70;;
14276;SDS011;7222;57.346;12.150;2023-02-01T13:32:23;25.40;;;5.77;;
14276;SDS011;7222;57.346;12.150;2023-02-01T13:35:18;21.50;;;5.40;;
14276;SDS011;7222;57.346;12.150;2023-02-01T13:37:59;23.33;;;6.23;;
14276;SDS011;7222;57.346;12.150;2023-02-01T13:40:40;20.27;;;6.00;;
14276;SDS011;7222;57.346;12.150;2023-02-01T13:43:11;21.27;;;6.20;;
14276;SDS011;7222;57.346;12.150;2023-02-01T13:45:42;19.57;;;4.73;;
14276;SDS011;7222;57.346;12.150;2023-02-01T13:48:21;16.10;;;4.80;;
14276;SDS011;7222;57.346;12.150;2023-02-01T13:50:54;18.20;;;5.57;;
14276;SDS011;7222;57.346;12.150;2023-02-01T13:53:23;20.33;;;4.80;;
14276;SDS011;7222;57.346;12.150;2023-02-01T13:55:55;18.90;;;5.90;;
14276;SDS011;7222;57.346;12.150;2023-02-01T13:58:35;22.03;;;6.13;;
14276;SDS011;7222;57.346;12.150;2023-02-01T14:04:00;13.60;;;3.63;;
14276;SDS011;7222;57.346;12.150;2023-02-01T14:06:38;19.80;;;5.33;;
14276;SDS011;7222;57.346;12.150;2023-02-01T14:09:15;20.20;;;3.47;;
14276;SDS011;7222;57.346;12.150;2023-02-01T14:11:46;22.47;;;5.73;;
14276;SDS011;7222;57.346;12.150;2023-02-01T14:23:25;17.90;;;5.30;;
14276;SDS011;7222;57.346;12.150;2023-02-01T14:26:03;18.83;;;5.87;;
14276;SDS011;7222;57.346;12.150;2023-02-01T14:28:34;22.33;;;5.57;;
14276;SDS011;7222;57.346;12.150;2023-02-01T14:31:13;24.03;;;6.00;;
14276;SDS011;7222;57.346;12.150;2023-02-01T14:33:58;20.83;;;6.00;;
14276;SDS011;7222;57.346;12.150;2023-02-01T14:36:38;22.83;;;5.40;;
14276;SDS011;7222;57.346;12.150;2023-02-01T14:39:21;25.83;;;5.53;;
14276;SDS011;7222;57.346;12.150;2023-02-01T14:41:53;18.57;;;5.83;;
14276;SDS011;7222;57.346;12.150;2023-02-01T14:44:24;23.43;;;5.70;;
14276;SDS011;7222;57.346;12.150;2023-02-01T14:47:02;26.70;;;5.97;;
14276;SDS011;7222;57.346;12.150;2023-02-01T14:49:47;29.20;;;6.13;;
14276;SDS011;7222;57.346;12.150;2023-02-01T14:52:19;22.50;;;5.30;;
14276;SDS011;7222;57.346;12.150;2023-02-01T14:54:51;24.80;;;5.77;;
14276;SDS011;7222;57.346;12.150;2023-02-01T14:57:23;18.37;;;4.97;;
14276;SDS011;7222;57.346;12.150;2023-02-01T14:59:54;20.50;;;5.53;;
14276;SDS011;7222;57.346;12.150;2023-02-01T15:02:31;21.73;;;5.57;;
14276;SDS011;7222;57.346;12.150;2023-02-01T15:05:12;21.60;;;7.30;;
14276;SDS011;7222;57.346;12.150;2023-02-01T15:07:54;21.20;;;4.97;;
14276;SDS011;7222;57.346;12.150;2023-02-01T15:10:24;15.40;;;6.93;;
14276;SDS011;7222;57.346;12.150;2023-02-01T15:12:52;18.93;;;5.70;;
14276;SDS011;7222;57.346;12.150;2023-02-01T15:15:20;11.90;;;3.97;;
14276;SDS011;7222;57.346;12.150;2023-02-01T15:17:49;12.33;;;3.70;;
14276;SDS011;7222;57.346;12.150;2023-02-01T15:20:18;12.07;;;3.30;;
14276;SDS011;7222;57.346;12.150;2023-02-01T15:22:52;18.60;;;4.33;;